Crestline, Ohio
Current Conditions -  °F | °C
As of 9:52 AM on Saturday 20 Dec 2014 (Local Time) from KMFD Reporting Station
Overcast Overcast  
Wind Chill: 28°   Ceiling: 1900
Heat Index: 28°   Visibility: 9mi
Dew Point: 21°   Wind: 3mph
Humidity: 75%   Direction: 130°SE
Pressure: 30.27"   Gusts: NA
Location:  40.79°N, 82.74°W
Report Text: KMFD 201452Z 13003KT 9SM OVC019 M02/M06 A3027 RMK AO2 SLP266 T10221061 52007
Loading
Personal Weather Stations






























Interactive Weather Map New forecast layout! Learn more

10-Day Weather Forecast

Advertisements
Track Severe Weather on mobile